Time,TemperatureF,DewpointF,PressureIn,WindDirection,WindDirectionDegrees,WindSpeedMPH,WindSpeedGustMPH,Humidity,HourlyPrecipIn,Conditions,Clouds,dailyrainin,SoftwareType,DateUTC
2013-01-25 11:03:00,40.0,23.0,-100.00,SSE,160,4.0,7.0,50,0.00,,,-99.99,,2013-01-25 18:03:00,
2013-01-25 11:12:00,40.0,23.0,-100.00,SSE,150,6.0,9.0,50,0.00,,,-99.99,,2013-01-25 18:12:00,
2013-01-25 11:23:00,40.0,23.0,-100.00,SSE,165,6.0,9.0,49,0.00,,,-99.99,,2013-01-25 18:23:00,
2013-01-25 11:33:00,41.0,22.0,-100.00,SSE,155,6.0,9.0,47,0.00,,,-99.99,,2013-01-25 18:33:00,
2013-01-25 11:42:00,43.0,23.0,-100.00,SE,130,4.0,8.0,44,0.00,,,-99.99,,2013-01-25 18:42:00,
2013-01-25 11:52:00,44.0,22.0,-100.00,South,175,1.0,7.0,42,0.00,,,-99.99,,2013-01-25 18:52:00,
2013-01-25 12:03:00,45.0,22.0,-100.00,ESE,110,5.0,7.0,39,0.00,,,-99.99,,2013-01-25 19:03:00,
2013-01-25 12:12:00,44.0,21.0,-100.00,SE,145,4.0,7.0,40,0.00,,,-99.99,,2013-01-25 19:12:00,
2013-01-25 12:22:00,43.0,21.0,-100.00,East,95,4.0,6.0,40,0.00,,,-99.99,,2013-01-25 19:22:00,
2013-01-25 12:32:00,45.0,22.0,-100.00,SE,130,6.0,11.0,38,0.00,,,-99.99,,2013-01-25 19:32:00,
2013-01-25 12:42:00,43.0,21.0,-100.00,SE,130,3.0,9.0,40,0.00,,,-99.99,,2013-01-25 19:42:00,
2013-01-25 12:52:00,44.0,20.0,-100.00,East,90,4.0,7.0,38,0.00,,,-99.99,,2013-01-25 19:52:00,
2013-01-25 13:02:00,44.0,21.0,-100.00,East,95,2.0,6.0,38,0.00,,,-99.99,,2013-01-25 20:02:00,
2013-01-25 13:12:00,46.0,21.0,-100.00,ESE,120,4.0,6.0,37,0.00,,,-99.99,,2013-01-25 20:12:00,
2013-01-25 13:22:00,46.0,21.0,-100.00,SW,230,1.0,6.0,36,0.00,,,-99.99,,2013-01-25 20:22:00,
2013-01-25 13:32:00,45.0,21.0,-100.00,SSE,165,2.0,7.0,36,0.00,,,-99.99,,2013-01-25 20:32:00,
2013-01-25 13:42:00,44.0,21.0,-100.00,North,10,14.0,17.0,40,0.00,,,-99.99,,2013-01-25 20:42:00,
2013-01-25 13:52:00,43.0,22.0,-100.00,North,5,14.0,18.0,42,0.00,,,-99.99,,2013-01-25 20:52:00,
2013-01-25 14:02:00,42.0,22.0,-100.00,North,0,16.0,21.0,45,0.00,,,-99.99,,2013-01-25 21:02:00,
2013-01-25 14:12:00,41.0,22.0,-100.00,North,350,17.0,21.0,46,0.00,,,-99.99,,2013-01-25 21:12:00,
2013-01-25 14:22:00,42.0,22.0,-100.00,North,5,16.0,24.0,46,0.00,,,-99.99,,2013-01-25 21:22:00,
2013-01-25 14:32:00,42.0,23.0,-100.00,North,10,12.0,21.0,46,0.00,,,-99.99,,2013-01-25 21:32:00,
2013-01-25 14:42:00,43.0,23.0,-100.00,NNW,340,14.0,19.0,45,0.00,,,-99.99,,2013-01-25 21:42:00,
2013-01-25 14:52:00,43.0,23.0,-100.00,NNW,340,14.0,19.0,44,0.00,,,-99.99,,2013-01-25 21:52:00,
2013-01-25 15:02:00,41.0,22.0,-100.00,NNW,340,13.0,18.0,46,0.00,,,-99.99,,2013-01-25 22:02:00,
2013-01-25 15:11:00,41.0,22.0,-100.00,NNW,340,13.0,18.0,46,0.00,,,-99.99,,2013-01-25 22:11:00,
2013-01-25 15:22:00,40.0,21.0,-100.00,NNW,345,13.0,23.0,46,0.00,,,-99.99,,2013-01-25 22:22:00,
2013-01-25 15:32:00,40.0,21.0,-100.00,NNW,345,16.0,22.0,46,0.00,,,-99.99,,2013-01-25 22:32:00,
2013-01-25 15:42:00,39.0,21.0,-100.00,NNW,340,17.0,24.0,49,0.00,,,-99.99,,2013-01-25 22:42:00,
2013-01-25 15:52:00,38.0,22.0,-100.00,NNW,335,17.0,23.0,51,0.00,,,-99.99,,2013-01-25 22:52:00,
2013-01-25 16:02:00,38.0,22.0,-100.00,NNW,345,14.0,22.0,51,0.00,,,-99.99,,2013-01-25 23:02:00,
2013-01-25 16:12:00,39.0,22.0,-100.00,NW,325,13.0,20.0,51,0.00,,,-99.99,,2013-01-25 23:12:00,
2013-01-25 16:22:00,38.0,22.0,-100.00,NW,320,12.0,19.0,52,0.00,,,-99.99,,2013-01-25 23:22:00,
2013-01-25 16:32:00,37.0,22.0,-100.00,NNW,340,13.0,19.0,53,0.00,,,-99.99,,2013-01-25 23:32:00,
2013-01-25 16:42:00,37.0,22.0,-100.00,NW,325,17.0,25.0,54,0.00,,,-99.99,,2013-01-25 23:42:00,
2013-01-25 16:52:00,37.0,22.0,-100.00,NNW,330,15.0,20.0,55,0.00,,,-99.99,,2013-01-25 23:52:00,
2013-01-25 17:02:00,36.0,22.0,-100.00,NW,325,12.0,21.0,58,0.00,,,-99.99,,2013-01-26 00:02:00,
2013-01-25 17:11:00,35.0,23.0,-100.00,NW,320,10.0,17.0,61,0.00,,,-99.99,,2013-01-26 00:11:00,
2013-01-25 17:22:00,34.0,23.0,-100.00,NNW,335,14.0,16.0,64,0.00,,,-99.99,,2013-01-26 00:22:00,
2013-01-25 17:32:00,34.0,23.0,-100.00,NNW,330,13.0,17.0,64,0.00,,,-99.99,,2013-01-26 00:32:00,
2013-01-25 17:42:00,34.0,23.0,-100.00,NNW,330,14.0,18.0,64,0.00,,,-99.99,,2013-01-26 00:42:00,
2013-01-25 17:52:00,34.0,23.0,-100.00,NNW,335,13.0,17.0,64,0.00,,,-99.99,,2013-01-26 00:52:00,
2013-01-25 18:01:00,34.0,23.0,-100.00,NNW,340,14.0,16.0,65,0.00,,,-99.99,,2013-01-26 01:01:00,
2013-01-25 18:11:00,33.0,23.0,-100.00,NNW,340,13.0,17.0,65,0.00,,,-99.99,,2013-01-26 01:11:00,
2013-01-25 18:22:00,34.0,22.0,-100.00,NW,325,11.0,16.0,63,0.00,,,-99.99,,2013-01-26 01:22:00,
2013-01-25 18:32:00,33.0,22.0,-100.00,NNW,345,12.0,15.0,64,0.00,,,-99.99,,2013-01-26 01:32:00,
2013-01-25 18:42:00,32.0,22.0,-100.00,NNW,345,15.0,17.0,65,0.00,,,-99.99,,2013-01-26 01:42:00,
2013-01-25 18:52:00,32.0,22.0,-100.00,NNW,345,12.0,16.0,66,0.00,,,-99.99,,2013-01-26 01:52:00,
2013-01-25 19:01:00,32.0,22.0,-100.00,NNW,340,12.0,15.0,67,0.00,,,-99.99,,2013-01-26 02:01:00,
2013-01-25 19:11:00,33.0,22.0,-100.00,NW,315,6.0,12.0,65,0.00,,,-99.99,,2013-01-26 02:11:00,
2013-01-25 19:22:00,33.0,23.0,-100.00,NNW,330,7.0,11.0,66,0.00,,,-99.99,,2013-01-26 02:22:00,
2013-01-25 19:32:00,32.0,23.0,-100.00,NNW,340,12.0,16.0,68,0.00,,,-99.99,,2013-01-26 02:32:00,
2013-01-25 19:42:00,32.0,23.0,-100.00,North,10,6.0,16.0,68,0.00,,,-99.99,,2013-01-26 02:42:00,
2013-01-25 19:52:00,33.0,23.0,-100.00,NW,325,6.0,13.0,66,0.00,,,-99.99,,2013-01-26 02:52:00,
2013-01-25 20:02:00,32.0,23.0,-100.00,NNW,345,9.0,11.0,69,0.00,,,-99.99,,2013-01-26 03:02:00,
2013-01-25 20:11:00,31.0,23.0,-100.00,NNW,345,12.0,13.0,71,0.00,,,-99.99,,2013-01-26 03:11:00,
2013-01-25 20:21:00,31.0,24.0,-100.00,NNW,345,13.0,15.0,71,0.00,,,-99.99,,2013-01-26 03:21:00,
2013-01-25 20:31:00,31.0,23.0,-100.00,North,350,14.0,16.0,72,0.00,,,-99.99,,2013-01-26 03:31:00,
2013-01-25 20:42:00,31.0,23.0,-100.00,North,5,13.0,16.0,72,0.00,,,-99.99,,2013-01-26 03:42:00,
2013-01-25 20:51:00,31.0,23.0,-100.00,NNW,345,9.0,14.0,72,0.00,,,-99.99,,2013-01-26 03:51:00,
2013-01-25 21:02:00,31.0,23.0,-100.00,NNW,330,7.0,10.0,73,0.00,,,-99.99,,2013-01-26 04:02:00,
2013-01-25 21:12:00,31.0,23.0,-100.00,NNW,345,9.0,12.0,72,0.00,,,-99.99,,2013-01-26 04:12:00,
2013-01-25 21:21:00,31.0,23.0,-100.00,North,350,6.0,12.0,72,0.00,,,-99.99,,2013-01-26 04:21:00,
2013-01-25 21:32:00,31.0,22.0,-100.00,SE,130,6.0,9.0,69,0.00,,,-99.99,,2013-01-26 04:32:00,
2013-01-25 21:42:00,28.0,20.0,-100.00,South,180,6.0,7.0,72,0.00,,,-99.99,,2013-01-26 04:42:00,
2013-01-25 21:52:00,29.0,22.0,-100.00,SW,220,1.0,6.0,73,0.00,,,-99.99,,2013-01-26 04:52:00,
2013-01-25 22:03:00,29.0,21.0,-100.00,SSE,155,4.0,5.0,73,0.00,,,-99.99,,2013-01-26 05:03:00,
2013-01-25 22:12:00,26.0,20.0,-100.00,South,180,4.0,7.0,75,0.00,,,-99.99,,2013-01-26 05:12:00,
2013-01-25 22:23:00,27.0,21.0,-100.00,West,275,6.0,11.0,77,0.00,,,-99.99,,2013-01-26 05:23:00,
2013-01-25 22:33:00,28.0,22.0,-100.00,SW,215,3.0,7.0,75,0.00,,,-99.99,,2013-01-26 05:33:00,
2013-01-25 22:41:00,27.0,21.0,-100.00,West,270,4.0,7.0,76,0.00,,,-99.99,,2013-01-26 05:41:00,
2013-01-25 22:52:00,26.0,20.0,-100.00,SE,130,4.0,7.0,76,0.00,,,-99.99,,2013-01-26 05:52:00,
2013-01-25 23:02:00,24.0,19.0,-100.00,NNW,330,1.0,6.0,78,0.00,,,-99.99,,2013-01-26 06:02:00,
2013-01-25 23:12:00,26.0,20.0,-100.00,WNW,295,2.0,3.0,79,0.00,,,-99.99,,2013-01-26 06:12:00,
2013-01-25 23:21:00,27.0,21.0,-100.00,SSW,195,2.0,4.0,79,0.00,,,-99.99,,2013-01-26 06:21:00,
2013-01-25 23:31:00,26.0,21.0,-100.00,ESE,115,3.0,6.0,79,0.00,,,-99.99,,2013-01-26 06:31:00,
2013-01-25 23:41:00,25.0,20.0,-100.00,SW,230,2.0,4.0,80,0.00,,,-99.99,,2013-01-26 06:41:00,
2013-01-25 23:51:00,26.0,21.0,-100.00,SW,220,4.0,5.0,80,0.00,,,-99.99,,2013-01-26 06:51:00,